Time;durP1;ratioP1;P1;durP2;ratioP2;P2;SDS_P1;SDS_P2;PMS_P1;PMS_P2;Temp;Humidity;BMP_temperature;BMP_pressure;BME280_temperature;BME280_humidity;BME280_pressure;Samples;Min_cycle;Max_cycle;Signal;HPM_P1;HPM_P2
2022/02/08 00:00:18;;;;;;;15.67;7.70;;;5.80;1.00;;;;;;5047594;28;20577;-72
2022/02/08 00:02:50;;;;;;;14.10;6.80;;;5.80;1.00;;;;;;5047301;28;20222;-73
2022/02/08 00:05:20;;;;;;;15.27;7.30;;;5.80;1.00;;;;;;5047712;28;20207;-73
2022/02/08 00:07:50;;;;;;;16.27;9.67;;;5.80;1.00;;;;;;5047359;28;20570;-74
2022/02/08 00:10:17;;;;;;;17.00;10.37;;;5.70;1.00;;;;;;5047367;28;20203;-72
2022/02/08 00:12:45;;;;;;;15.87;10.47;;;5.80;1.00;;;;;;5047123;28;20245;-73
2022/02/08 00:15:12;;;;;;;13.93;8.57;;;5.80;1.00;;;;;;5047378;28;20203;-75
2022/02/08 00:17:39;;;;;;;15.97;8.17;;;5.70;1.00;;;;;;5047100;28;20256;-72
2022/02/08 00:20:08;;;;;;;9.87;8.20;;;5.70;1.00;;;;;;5047577;28;20198;-72
2022/02/08 00:22:37;;;;;;;16.43;9.03;;;5.60;1.00;;;;;;5047040;28;20265;-72
2022/02/08 00:25:06;;;;;;;12.43;8.33;;;5.60;1.00;;;;;;5047091;28;20614;-75
2022/02/08 00:27:34;;;;;;;12.53;8.20;;;5.60;1.00;;;;;;5046926;28;20203;-73
2022/02/08 00:30:01;;;;;;;13.20;8.63;;;5.50;1.00;;;;;;5047055;28;20686;-73
2022/02/08 00:32:28;;;;;;;14.80;8.87;;;5.40;1.00;;;;;;5047381;28;20231;-73
2022/02/08 00:34:55;;;;;;;14.87;9.03;;;5.50;1.00;;;;;;5047286;28;20203;-73
2022/02/08 00:37:22;;;;;;;13.53;9.13;;;5.40;1.00;;;;;;5047101;28;20203;-74
2022/02/08 00:39:50;;;;;;;14.33;8.87;;;5.40;1.00;;;;;;5046435;28;20211;-74
2022/02/08 00:42:18;;;;;;;17.13;9.17;;;5.40;1.00;;;;;;5046564;28;20210;-74
2022/02/08 00:44:50;;;;;;;15.90;8.73;;;5.40;1.00;;;;;;5036852;28;20545;-74
2022/02/08 00:47:25;;;;;;;11.37;8.87;;;5.40;1.00;;;;;;5033613;28;20200;-74
2022/02/08 00:49:52;;;;;;;11.37;9.50;;;5.40;1.00;;;;;;5033260;28;20693;-72
2022/02/08 00:52:19;;;;;;;13.07;8.70;;;5.40;1.00;;;;;;5033440;28;20772;-73
2022/02/08 00:54:48;;;;;;;11.60;8.60;;;5.40;1.00;;;;;;5032842;28;20203;-73
2022/02/08 00:57:17;;;;;;;15.83;9.90;;;5.40;1.00;;;;;;5033653;28;20266;-73
2022/02/08 00:59:44;;;;;;;15.83;9.20;;;5.40;1.00;;;;;;5033184;28;20262;-73
2022/02/08 01:02:12;;;;;;;13.97;10.00;;;5.40;1.00;;;;;;5033419;28;20207;-73
2022/02/08 01:04:40;;;;;;;17.80;9.60;;;5.40;1.00;;;;;;5032933;28;20230;-72
2022/02/08 01:07:09;;;;;;;13.63;9.10;;;5.30;1.00;;;;;;5033129;28;20203;-72
2022/02/08 01:09:46;;;;;;;14.67;8.17;;;5.30;1.00;;;;;;5032701;28;20265;-72
2022/02/08 01:12:13;;;;;;;12.43;8.60;;;5.20;1.00;;;;;;5032838;28;20203;-72
2022/02/08 01:14:43;;;;;;;14.97;10.53;;;5.10;1.00;;;;;;5032739;28;20226;-72
2022/02/08 01:17:11;;;;;;;13.10;8.90;;;5.10;1.00;;;;;;5032994;28;20200;-72
2022/02/08 01:19:46;;;;;;;15.60;11.03;;;5.10;1.00;;;;;;5032685;28;20200;-72
2022/02/08 01:22:13;;;;;;;16.70;10.47;;;5.20;1.00;;;;;;5032858;28;20605;-72
2022/02/08 01:24:42;;;;;;;16.13;11.57;;;5.10;1.00;;;;;;5032698;28;20253;-72
2022/02/08 01:27:12;;;;;;;16.40;10.73;;;5.10;1.00;;;;;;5033001;28;20199;-72
2022/02/08 01:29:42;;;;;;;17.37;10.23;;;5.10;1.00;;;;;;5032408;28;20208;-72
2022/02/08 01:32:33;;;;;;;16.67;11.03;;;5.10;1.00;;;;;;5032648;28;20215;-74
2022/02/08 01:35:09;;;;;;;17.07;11.00;;;5.10;1.00;;;;;;5032540;28;20247;-74
2022/02/08 01:37:47;;;;;;;14.17;11.17;;;5.00;1.00;;;;;;5032074;28;20207;-72
2022/02/08 01:40:23;;;;;;;18.30;11.07;;;5.00;1.00;;;;;;5032658;28;20237;-72
2022/02/08 01:43:11;;;;;;;23.50;13.17;;;4.90;1.00;;;;;;5032187;28;20242;-72
2022/02/08 01:45:46;;;;;;;19.20;13.07;;;4.70;1.00;;;;;;5032103;28;20210;-72
2022/02/08 01:48:26;;;;;;;24.03;14.23;;;4.60;1.00;;;;;;5032434;28;20221;-72
2022/02/08 01:50:55;;;;;;;14.83;10.67;;;4.70;1.00;;;;;;5032296;28;20214;-72
2022/02/08 01:53:23;;;;;;;20.23;10.60;;;4.70;1.00;;;;;;5031896;28;20782;-72
2022/02/08 01:55:51;;;;;;;15.97;11.43;;;4.80;1.00;;;;;;5030990;28;20211;-72
2022/02/08 01:58:19;;;;;;;14.47;10.10;;;4.90;1.00;;;;;;5032165;28;20212;-72
2022/02/08 02:00:46;;;;;;;15.70;10.47;;;4.90;1.00;;;;;;5031937;28;20204;-72
2022/02/08 02:03:14;;;;;;;14.67;11.27;;;4.80;1.00;;;;;;5032263;28;20203;-72
2022/02/08 02:05:41;;;;;;;17.50;12.60;;;4.70;1.00;;;;;;5031367;28;20741;-74
2022/02/08 02:08:08;;;;;;;15.73;11.50;;;4.80;1.00;;;;;;5032318;28;20203;-74
2022/02/08 02:10:37;;;;;;;13.77;10.97;;;4.90;1.00;;;;;;5031659;28;20208;-73
2022/02/08 02:13:08;;;;;;;15.97;11.67;;;4.90;1.00;;;;;;5031922;28;20227;-72
2022/02/08 02:15:35;;;;;;;19.60;11.53;;;4.80;1.00;;;;;;5031517;28;20299;-74
2022/02/08 02:18:02;;;;;;;18.70;10.63;;;4.80;1.00;;;;;;5031632;28;20269;-73
2022/02/08 02:20:32;;;;;;;18.53;11.83;;;4.80;1.00;;;;;;5031622;28;20209;-74
2022/02/08 02:22:59;;;;;;;12.97;9.93;;;4.80;1.00;;;;;;5031817;28;20239;-73
2022/02/08 02:25:30;;;;;;;11.10;9.77;;;4.80;1.00;;;;;;5032012;28;20949;-73
2022/02/08 02:28:01;;;;;;;13.23;11.80;;;4.80;1.00;;;;;;5032084;28;20287;-73
2022/02/08 02:30:31;;;;;;;14.20;10.40;;;4.70;1.00;;;;;;5031713;28;20207;-71
2022/02/08 02:32:59;;;;;;;16.23;11.73;;;4.70;1.00;;;;;;5031733;28;20231;-71
2022/02/08 02:35:27;;;;;;;18.83;11.90;;;4.70;1.00;;;;;;5031575;28;20690;-71
2022/02/08 02:37:55;;;;;;;12.87;10.63;;;4.60;1.00;;;;;;5031608;28;20200;-71
2022/02/08 02:40:23;;;;;;;18.37;10.60;;;4.60;1.00;;;;;;5031566;28;20199;-71
2022/02/08 02:42:51;;;;;;;16.17;10.27;;;4.60;1.00;;;;;;5030925;28;20207;-71
2022/02/08 02:45:20;;;;;;;14.60;10.17;;;4.60;1.00;;;;;;5031326;28;20265;-71
2022/02/08 02:47:48;;;;;;;15.00;11.30;;;4.50;1.00;;;;;;5030960;28;20611;-73
2022/02/08 02:50:15;;;;;;;11.87;9.77;;;4.50;1.00;;;;;;5031327;28;20224;-73
2022/02/08 02:52:42;;;;;;;13.10;10.20;;;4.50;1.00;;;;;;5030820;28;20203;-72
2022/02/08 02:55:09;;;;;;;14.67;9.57;;;4.60;1.00;;;;;;5031289;28;20199;-73
2022/02/08 02:57:36;;;;;;;14.07;9.80;;;4.50;1.00;;;;;;5030770;28;20291;-73
2022/02/08 03:00:10;;;;;;;11.97;9.90;;;4.50;1.00;;;;;;5031122;28;20742;-71
2022/02/08 03:02:44;;;;;;;14.97;9.47;;;4.40;1.00;;;;;;5030586;28;20585;-74
2022/02/08 03:05:22;;;;;;;14.43;8.97;;;4.40;1.00;;;;;;5030726;28;20207;-70
2022/02/08 03:18:48;;;;;;;15.33;10.57;;;4.20;1.00;;;;;;5017482;28;20327;-73
2022/02/08 03:21:15;;;;;;;12.00;8.97;;;4.20;1.00;;;;;;5011369;28;20246;-72
2022/02/08 03:23:43;;;;;;;11.13;8.67;;;4.20;1.00;;;;;;5010784;28;20739;-72
2022/02/08 03:26:10;;;;;;;13.93;11.47;;;4.20;1.00;;;;;;5011216;28;20680;-72
2022/02/08 03:28:37;;;;;;;13.70;10.23;;;4.20;1.00;;;;;;5010666;28;20204;-72
2022/02/08 03:31:06;;;;;;;9.90;8.90;;;4.20;1.00;;;;;;5011024;28;20634;-72
2022/02/08 03:33:33;;;;;;;11.27;9.13;;;4.10;1.00;;;;;;5010107;28;20228;-72
2022/02/08 03:36:00;;;;;;;13.83;9.00;;;4.10;1.00;;;;;;5011037;28;20258;-72
2022/02/08 03:38:32;;;;;;;12.60;9.37;;;4.20;1.00;;;;;;5011277;28;20205;-71
2022/02/08 03:41:01;;;;;;;12.83;8.70;;;4.20;1.00;;;;;;5010837;28;20602;-71
2022/02/08 03:43:32;;;;;;;13.27;8.90;;;4.10;1.00;;;;;;5010895;28;20204;-72
2022/02/08 03:46:04;;;;;;;11.93;9.40;;;4.10;1.00;;;;;;5010695;28;20222;-72
2022/02/08 03:48:35;;;;;;;10.37;8.30;;;4.10;1.00;;;;;;5010218;28;20295;-72
2022/02/08 03:51:10;;;;;;;11.30;8.70;;;4.10;1.00;;;;;;5010878;28;20262;-72
2022/02/08 03:53:38;;;;;;;9.07;7.97;;;4.10;1.00;;;;;;5010231;28;20356;-72
2022/02/08 03:56:07;;;;;;;12.07;8.73;;;4.00;1.00;;;;;;5010720;28;20547;-72
2022/02/08 03:58:34;;;;;;;11.63;7.87;;;4.00;1.00;;;;;;5010451;28;20291;-73
2022/02/08 04:01:26;;;;;;;10.23;8.73;;;4.00;1.00;;;;;;5010944;28;20565;-74
2022/02/08 04:04:18;;;;;;;15.03;9.27;;;4.00;1.00;;;;;;5010096;28;20671;-74
2022/02/08 04:06:48;;;;;;;13.13;9.23;;;4.00;1.00;;;;;;5010159;28;20208;-74
2022/02/08 04:09:17;;;;;;;17.70;9.90;;;4.00;1.00;;;;;;5010893;28;20200;-74
2022/02/08 04:11:54;;;;;;;13.20;8.93;;;3.90;1.00;;;;;;5010396;28;20204;-73
2022/02/08 04:14:29;;;;;;;12.90;8.60;;;4.10;1.00;;;;;;5010609;28;20232;-73
2022/02/08 04:17:02;;;;;;;12.73;8.90;;;4.20;1.00;;;;;;5010620;28;20306;-74
2022/02/08 04:19:35;;;;;;;10.87;8.43;;;4.30;1.00;;;;;;5012145;28;20236;-74
2022/02/08 04:33:20;;;;;;;13.10;8.80;;;4.00;1.00;;;;;;5014119;28;20215;-77
2022/02/08 04:36:07;;;;;;;10.53;8.27;;;4.00;1.00;;;;;;5013756;28;20215;-79
2022/02/08 04:38:48;;;;;;;14.03;9.27;;;4.00;1.00;;;;;;5014501;28;20286;-78
2022/02/08 04:41:19;;;;;;;10.00;9.00;;;3.90;1.00;;;;;;5014477;28;20680;-77
2022/02/08 04:43:56;;;;;;;11.70;8.93;;;4.00;1.00;;;;;;5029530;28;20643;-79
2022/02/08 04:46:32;;;;;;;13.33;8.13;;;4.00;1.00;;;;;;5025745;28;20214;-81
2022/02/08 04:48:59;;;;;;;12.37;7.90;;;4.10;1.00;;;;;;5034182;28;20221;-75
2022/02/08 04:51:33;;;;;;;8.73;7.13;;;4.10;1.00;;;;;;5034033;28;20211;-75
2022/02/08 04:54:08;;;;;;;14.80;8.70;;;4.20;1.00;;;;;;5033176;28;20659;-81
2022/02/08 04:59:29;;;;;;;12.40;7.63;;;4.10;1.00;;;;;;5020637;28;20211;-77
2022/02/08 05:40:35;;;;;;;20.43;12.57;;;3.40;1.00;;;;;;5028413;28;20199;-77
2022/02/08 05:40:53;;;;;;;14.53;10.27;;;3.50;1.00;;;;;;5018596;28;20203;-76
2022/02/08 05:43:26;;;;;;;12.77;10.20;;;3.40;1.00;;;;;;5032227;28;20208;-76
2022/02/08 05:46:16;;;;;;;16.83;9.77;;;3.40;1.00;;;;;;5032024;28;20235;-77
2022/02/08 05:48:48;;;;;;;15.10;10.37;;;3.50;1.00;;;;;;5031900;28;20203;-76
2022/02/08 05:51:18;;;;;;;17.07;9.67;;;3.40;1.00;;;;;;5032410;28;20641;-77
2022/02/08 05:53:45;;;;;;;13.33;9.43;;;3.30;1.00;;;;;;5032444;28;20306;-77
2022/02/08 05:56:14;;;;;;;20.03;11.87;;;3.40;1.00;;;;;;5030985;28;20207;-77
2022/02/08 05:58:43;;;;;;;13.07;10.30;;;3.20;1.00;;;;;;5031954;28;20647;-77
2022/02/08 06:01:11;;;;;;;15.20;9.93;;;3.10;1.00;;;;;;5031271;28;20204;-77
2022/02/08 06:03:39;;;;;;;17.77;12.40;;;3.10;1.00;;;;;;5032029;28;20203;-76
2022/02/08 06:06:06;;;;;;;22.67;12.20;;;3.20;1.00;;;;;;5031963;28;20215;-75
2022/02/08 06:08:33;;;;;;;20.03;11.30;;;3.10;1.00;;;;;;5031537;28;20611;-75
2022/02/08 06:11:03;;;;;;;14.57;10.90;;;3.10;1.00;;;;;;5031591;28;20207;-76
2022/02/08 06:13:31;;;;;;;14.10;11.40;;;3.00;1.00;;;;;;5031755;28;20297;-75
2022/02/08 06:16:02;;;;;;;20.90;10.80;;;3.00;1.00;;;;;;5032339;28;20668;-76
2022/02/08 06:18:30;;;;;;;13.20;9.43;;;3.00;1.00;;;;;;5032268;28;20676;-76
2022/02/08 06:20:57;;;;;;;13.30;9.33;;;2.80;1.00;;;;;;5032262;28;20270;-76
2022/02/08 06:23:24;;;;;;;16.60;10.43;;;2.80;1.00;;;;;;5031604;28;20204;-75
2022/02/08 06:25:51;;;;;;;16.53;11.40;;;2.70;1.00;;;;;;5031786;28;20242;-76
2022/02/08 06:28:21;;;;;;;10.83;9.60;;;2.80;1.00;;;;;;5031387;28;20207;-76
2022/02/08 06:30:51;;;;;;;18.33;10.80;;;2.70;1.00;;;;;;5031934;28;20204;-76
2022/02/08 06:33:18;;;;;;;13.57;9.67;;;2.80;1.00;;;;;;5031131;28;20683;-76
2022/02/08 06:35:45;;;;;;;11.53;8.67;;;2.70;1.00;;;;;;5031644;28;20305;-75
2022/02/08 06:38:15;;;;;;;16.20;9.40;;;2.70;1.00;;;;;;5030996;28;20552;-76
2022/02/08 06:40:44;;;;;;;12.17;8.80;;;2.80;1.00;;;;;;5031419;28;20207;-76
2022/02/08 06:43:12;;;;;;;14.23;9.33;;;2.90;1.00;;;;;;5030620;28;20742;-76
2022/02/08 06:45:39;;;;;;;15.03;11.03;;;2.80;1.00;;;;;;5031520;28;20733;-79
2022/02/08 06:48:09;;;;;;;16.47;11.70;;;2.90;1.00;;;;;;5031098;28;20203;-77
2022/02/08 06:50:36;;;;;;;17.27;12.43;;;2.90;1.00;;;;;;5031570;28;20258;-79
2022/02/08 06:53:04;;;;;;;16.10;11.63;;;2.80;1.00;;;;;;5030704;28;20617;-79
2022/02/08 06:55:31;;;;;;;18.07;11.93;;;2.90;1.00;;;;;;5031284;28;20726;-79
2022/02/08 06:58:03;;;;;;;14.27;11.33;;;2.90;1.00;;;;;;5031738;28;20207;-79
2022/02/08 07:00:34;;;;;;;16.13;11.10;;;3.00;1.00;;;;;;5031108;28;20681;-78
2022/02/08 07:03:04;;;;;;;35.57;32.27;;;3.00;1.00;;;;;;5030900;28;20253;-77
2022/02/08 07:05:32;;;;;;;15.73;14.20;;;3.00;1.00;;;;;;5031102;28;20204;-78
2022/02/08 07:07:59;;;;;;;19.83;14.40;;;2.90;1.00;;;;;;5030865;28;20258;-77
2022/02/08 07:10:28;;;;;;;24.40;21.87;;;2.90;1.00;;;;;;5031215;28;20364;-77
2022/02/08 07:12:55;;;;;;;13.40;11.30;;;3.00;1.00;;;;;;5031415;28;20204;-76
2022/02/08 07:15:23;;;;;;;17.20;10.70;;;3.00;1.00;;;;;;5030527;28;20333;-77
2022/02/08 07:17:50;;;;;;;11.40;9.47;;;3.00;1.00;;;;;;5030958;28;20213;-77
2022/02/08 07:20:18;;;;;;;14.17;9.87;;;3.10;1.00;;;;;;5030570;28;20199;-80
2022/02/08 07:22:46;;;;;;;11.20;8.90;;;3.20;1.00;;;;;;5030908;28;20257;-78
2022/02/08 07:25:14;;;;;;;16.23;10.77;;;3.30;1.00;;;;;;5023337;28;20201;-78
2022/02/08 07:27:42;;;;;;;18.43;11.10;;;3.50;1.00;;;;;;5014871;28;20216;-78
2022/02/08 07:30:11;;;;;;;11.73;9.10;;;3.50;1.00;;;;;;5030124;28;20265;-76
2022/02/08 07:32:39;;;;;;;11.93;8.73;;;3.50;1.00;;;;;;5024018;28;20215;-76
2022/02/08 07:35:21;;;;;;;12.43;8.33;;;3.90;1.00;;;;;;5030436;28;20241;-80
2022/02/08 07:37:55;;;;;;;15.47;10.97;;;4.80;1.00;;;;;;5030141;28;20330;-79
2022/02/08 07:40:44;;;;;;;14.53;9.23;;;5.60;1.00;;;;;;5030054;28;20211;-78
2022/02/08 07:43:11;;;;;;;13.50;10.00;;;5.60;1.00;;;;;;5026049;28;20283;-74
2022/02/08 07:45:38;;;;;;;18.03;10.40;;;6.70;1.00;;;;;;5030500;28;20273;-76
2022/02/08 07:48:06;;;;;;;14.17;10.40;;;6.90;1.00;;;;;;5030069;28;20211;-73
2022/02/08 07:50:38;;;;;;;17.63;11.10;;;7.30;1.00;;;;;;5029140;28;20203;-73
2022/02/08 07:53:08;;;;;;;15.30;9.50;;;7.20;1.00;;;;;;5024972;28;20291;-75
2022/02/08 07:55:35;;;;;;;11.90;8.77;;;7.00;1.00;;;;;;5012450;28;20227;-75
2022/02/08 07:58:02;;;;;;;10.57;7.13;;;7.20;1.00;;;;;;5014397;28;20630;-75
2022/02/08 08:00:29;;;;;;;13.13;7.77;;;6.60;1.00;;;;;;5014495;28;20204;-77
2022/02/08 08:02:56;;;;;;;12.10;8.90;;;6.70;1.00;;;;;;5016189;28;20212;-76
2022/02/08 08:05:23;;;;;;;11.10;7.87;;;6.50;1.00;;;;;;5029286;28;20274;-78
2022/02/08 08:07:50;;;;;;;10.70;7.13;;;6.30;1.00;;;;;;5022923;28;20271;-79
2022/02/08 08:10:20;;;;;;;9.87;8.33;;;5.80;1.00;;;;;;5028631;28;20266;-75
2022/02/08 08:12:51;;;;;;;13.00;8.63;;;5.60;1.00;;;;;;5034289;28;20239;-76
2022/02/08 08:15:33;;;;;;;10.03;7.83;;;5.50;1.00;;;;;;5020017;28;20235;-76
2022/02/08 08:18:12;;;;;;;8.87;6.53;;;5.60;1.00;;;;;;5020328;28;20204;-78
2022/02/08 08:20:39;;;;;;;10.13;7.20;;;6.10;1.00;;;;;;5016454;28;21072;-79
2022/02/08 08:23:06;;;;;;;11.93;8.93;;;7.10;1.00;;;;;;5024102;28;20373;-78
2022/02/08 08:25:35;;;;;;;10.20;7.23;;;8.10;1.00;;;;;;5026601;28;20207;-79
2022/02/08 08:28:02;;;;;;;10.47;6.43;;;8.60;1.00;;;;;;5014265;28;20266;-79
2022/02/08 08:30:29;;;;;;;10.90;6.17;;;8.30;1.00;;;;;;5014631;28;20200;-79
2022/02/08 08:32:56;;;;;;;8.70;6.83;;;7.80;1.00;;;;;;5014493;28;20208;-77
2022/02/08 08:35:23;;;;;;;7.33;6.43;;;7.40;1.00;;;;;;5013816;28;20259;-78
2022/02/08 08:37:54;;;;;;;9.70;7.73;;;7.50;1.00;;;;;;5014240;28;20208;-79
2022/02/08 08:40:26;;;;;;;8.47;6.57;;;6.90;1.00;;;;;;5015815;28;20307;-83
2022/02/08 08:43:11;;;;;;;18.40;7.93;;;6.90;1.00;;;;;;5023198;28;20243;-81
2022/02/08 08:48:41;;;;;;;6.90;5.77;;;7.10;1.00;;;;;;5011745;28;20675;-74
2022/02/08 08:51:21;;;;;;;8.97;6.83;;;7.90;1.00;;;;;;5011974;28;20216;-74
2022/02/08 08:53:48;;;;;;;11.97;6.13;;;8.10;1.00;;;;;;5014022;28;20309;-73
2022/02/08 08:56:15;;;;;;;6.77;5.47;;;8.30;1.00;;;;;;5013559;28;20236;-74
2022/02/08 08:58:44;;;;;;;9.00;5.80;;;8.70;1.00;;;;;;5012882;28;20208;-81
2022/02/08 09:01:12;;;;;;;10.33;6.30;;;8.80;1.00;;;;;;5013623;28;20283;-74
2022/02/08 09:03:40;;;;;;;8.40;6.80;;;8.50;1.00;;;;;;5013087;28;20579;-73
2022/02/08 09:06:07;;;;;;;9.33;6.90;;;7.60;1.00;;;;;;5012905;28;20208;-77
2022/02/08 09:08:38;;;;;;;17.40;6.67;;;7.70;1.00;;;;;;5013540;28;20211;-74
2022/02/08 09:11:11;;;;;;;9.30;6.33;;;8.20;1.00;;;;;;5013230;28;20208;-74
2022/02/08 09:13:45;;;;;;;8.50;6.17;;;8.30;1.00;;;;;;5018259;28;20204;-74
2022/02/08 09:16:25;;;;;;;7.83;5.73;;;9.30;1.00;;;;;;5018078;28;20236;-79
2022/02/08 09:22:07;;;;;;;7.60;6.63;;;10.00;1.00;;;;;;5031542;28;20288;-75
2022/02/08 09:25:03;;;;;;;10.93;5.90;;;10.20;1.00;;;;;;5018780;28;20218;-74
2022/02/08 09:30:18;;;;;;;8.77;6.17;;;10.90;1.00;;;;;;5026677;28;20277;-76
2022/02/08 09:32:50;;;;;;;10.27;5.77;;;11.70;1.00;;;;;;5024510;28;20216;-82
2022/02/08 09:35:18;;;;;;;5.60;4.63;;;12.40;1.00;;;;;;5026721;28;20233;-75
2022/02/08 09:37:46;;;;;;;10.33;7.10;;;12.50;1.00;;;;;;5024821;28;20261;-75
2022/02/08 09:40:15;;;;;;;9.37;5.07;;;12.80;1.00;;;;;;5032371;28;20215;-85
2022/02/08 09:42:43;;;;;;;8.23;4.95;;;11.70;1.00;;;;;;5032696;28;20208;-81
2022/02/08 09:45:15;;;;;;;7.53;5.18;;;11.00;1.00;;;;;;5018402;28;20679;-75
2022/02/08 09:47:51;;;;;;;6.63;4.85;;;13.50;1.00;;;;;;5032467;28;20199;-82
2022/02/08 09:50:22;;;;;;;7.30;5.05;;;13.50;1.00;;;;;;5031971;28;20203;-74
2022/02/08 09:52:52;;;;;;;9.25;5.05;;;16.00;1.00;;;;;;5032246;28;21147;-74
2022/02/08 09:55:20;;;;;;;8.75;4.85;;;16.40;1.00;;;;;;5031680;28;20238;-76
2022/02/08 09:57:47;;;;;;;6.15;5.53;;;13.50;1.00;;;;;;5020576;28;20222;-75
2022/02/08 10:00:16;;;;;;;10.52;5.43;;;16.10;1.00;;;;;;5030207;28;20249;-74
2022/02/08 10:02:43;;;;;;;5.68;4.82;;;14.90;1.00;;;;;;5032076;28;20208;-74
2022/02/08 10:05:13;;;;;;;7.07;5.00;;;14.60;1.00;;;;;;5031951;28;20208;-75
2022/02/08 10:07:41;;;;;;;7.47;5.95;;;18.10;1.00;;;;;;5031811;28;20718;-72
2022/02/08 10:10:09;;;;;;;10.45;5.47;;;18.70;1.00;;;;;;5030337;28;20253;-72
2022/02/08 10:13:01;;;;;;;8.05;5.45;;;17.60;1.00;;;;;;5030815;28;20298;-72
2022/02/08 10:23:54;;;;;;;7.90;5.38;;;21.30;1.00;;;;;;5024767;28;20641;-72
2022/02/08 10:26:31;;;;;;;7.03;5.38;;;19.40;1.00;;;;;;5031806;28;20211;-81
2022/02/08 10:29:02;;;;;;;10.95;6.03;;;19.40;1.00;;;;;;5032245;28;20203;-72
2022/02/08 10:40:05;;;;;;;7.97;5.75;;;18.70;1.00;;;;;;5031475;28;20241;-75
2022/02/08 10:42:32;;;;;;;5.68;4.43;;;13.60;1.00;;;;;;5031601;28;20203;-76
2022/02/08 10:45:00;;;;;;;10.93;4.85;;;11.90;1.00;;;;;;5031635;28;20269;-76
2022/02/08 10:47:39;;;;;;;15.75;6.00;;;10.70;1.00;;;;;;5031741;28;20207;-76
2022/02/08 10:50:08;;;;;;;8.90;5.53;;;10.10;1.00;;;;;;5031034;28;20207;-75
2022/02/08 10:52:39;;;;;;;6.72;4.63;;;10.10;1.00;;;;;;5018825;28;20558;-75
2022/02/08 10:55:16;;;;;;;11.00;5.57;;;10.00;1.00;;;;;;5010795;28;20710;-75
2022/02/08 10:57:51;;;;;;;10.23;5.38;;;10.30;1.00;;;;;;5019016;28;20208;-83
2022/02/08 11:00:24;;;;;;;7.13;5.70;;;10.50;1.00;;;;;;5013672;28;20238;-74
2022/02/08 11:02:53;;;;;;;10.97;5.00;;;10.40;1.00;;;;;;5011277;28;20231;-75
2022/02/08 11:05:27;;;;;;;8.53;4.93;;;10.60;1.00;;;;;;5011020;28;20652;-75
2022/02/08 11:08:09;;;;;;;8.17;4.63;;;10.70;1.00;;;;;;5019690;28;20660;-75
2022/02/08 11:11:06;;;;;;;8.80;4.17;;;10.60;1.00;;;;;;5019335;28;20697;-75
2022/02/08 11:13:44;;;;;;;7.33;4.40;;;10.40;1.00;;;;;;5022822;28;20203;-83
2022/02/08 11:16:19;;;;;;;7.93;4.93;;;10.50;1.00;;;;;;5015601;28;20216;-74
2022/02/08 11:19:07;;;;;;;9.27;5.07;;;10.60;1.00;;;;;;5027661;28;20289;-74
2022/02/08 11:21:51;;;;;;;6.47;3.67;;;10.70;1.00;;;;;;5023202;28;20232;-77
2022/02/08 11:24:30;;;;;;;11.53;4.03;;;10.80;1.00;;;;;;5019388;28;20629;-79
2022/02/08 11:27:09;;;;;;;8.10;3.73;;;11.10;1.00;;;;;;5023155;28;20247;-74
2022/02/08 11:29:40;;;;;;;8.50;3.60;;;11.10;1.00;;;;;;5021838;28;20210;-83
2022/02/08 11:32:19;;;;;;;7.03;3.27;;;11.10;1.00;;;;;;5022074;28;20223;-83
2022/02/08 11:43:42;;;;;;;7.30;3.20;;;11.50;1.00;;;;;;5010873;28;20239;-75
2022/02/08 11:46:27;;;;;;;7.80;2.83;;;11.60;1.00;;;;;;5009984;28;20208;-82
2022/02/08 11:52:17;;;;;;;9.67;3.20;;;11.40;1.00;;;;;;5010911;28;20219;-74
2022/02/08 11:55:17;;;;;;;4.37;3.23;;;11.80;1.00;;;;;;5011268;28;20210;-74
2022/02/08 11:58:15;;;;;;;6.10;2.80;;;12.00;1.00;;;;;;5011029;28;20208;-75
2022/02/08 12:00:45;;;;;;;6.23;2.17;;;11.80;1.00;;;;;;5010852;28;20209;-75
2022/02/08 12:06:23;;;;;;;6.63;2.57;;;11.80;1.00;;;;;;4982186;28;20211;-76
2022/02/08 12:08:53;;;;;;;3.67;2.03;;;12.10;1.00;;;;;;5021605;28;20314;-84
2022/02/08 12:11:34;;;;;;;4.23;2.20;;;11.90;1.00;;;;;;5024576;28;20294;-77
2022/02/08 12:33:33;;;;;;;5.83;2.00;;;12.40;1.00;;;;;;5006321;28;20811;-77
2022/02/08 12:36:17;;;;;;;4.30;2.53;;;12.70;1.00;;;;;;5030851;28;20289;-74
2022/02/08 12:58:22;;;;;;;4.80;2.10;;;13.00;1.00;;;;;;5033644;28;20209;-74
2022/02/08 13:01:18;;;;;;;3.07;2.03;;;13.00;1.00;;;;;;5023989;28;20887;-84
2022/02/08 13:03:56;;;;;;;4.97;2.28;;;13.00;1.00;;;;;;5025571;28;20799;-83
2022/02/08 14:01:49;;;;;;;4.50;2.10;;;13.70;1.00;;;;;;5012985;28;20211;-83
2022/02/08 14:07:06;;;;;;;1.95;1.40;;;14.00;1.00;;;;;;5012512;28;20211;-73
2022/02/08 14:18:14;;;;;;;2.47;1.63;;;14.20;1.00;;;;;;5016857;28;20235;-82
2022/02/08 14:20:58;;;;;;;3.90;1.65;;;14.10;1.00;;;;;;5029197;28;20655;-76
2022/02/08 14:23:40;;;;;;;4.70;1.58;;;14.10;1.00;;;;;;5030231;28;20199;-81
2022/02/08 14:31:50;;;;;;;4.03;1.90;;;14.20;1.00;;;;;;5031984;28;20242;-73
2022/02/08 14:37:22;;;;;;;4.75;0.80;;;14.30;1.00;;;;;;5031508;28;20238;-73
2022/02/08 15:07:54;;;;;;;1.15;0.85;;;14.30;1.00;;;;;;5018047;28;20226;-79
2022/02/08 15:10:22;;;;;;;2.30;0.85;;;14.50;1.00;;;;;;5025691;28;20208;-78
2022/02/08 15:12:53;;;;;;;2.95;1.23;;;14.40;1.00;;;;;;5011611;28;20208;-74
2022/02/08 15:15:30;;;;;;;6.15;1.25;;;14.40;1.00;;;;;;5024611;28;20239;-84
2022/02/08 15:17:57;;;;;;;4.78;1.55;;;14.40;1.00;;;;;;5025499;28;20219;-85
2022/02/08 15:20:25;;;;;;;3.25;1.48;;;14.30;1.00;;;;;;5025076;28;20207;-80
2022/02/08 15:22:55;;;;;;;2.03;1.60;;;14.40;1.00;;;;;;5030621;28;20207;-74
2022/02/08 15:25:22;;;;;;;3.35;1.25;;;14.10;1.00;;;;;;5016316;28;20245;-74
2022/02/08 15:27:49;;;;;;;3.00;1.13;;;14.20;1.00;;;;;;5019469;28;20207;-75
2022/02/08 15:30:16;;;;;;;8.88;1.75;;;14.20;1.00;;;;;;5029156;28;20262;-86
2022/02/08 15:32:44;;;;;;;4.45;1.20;;;14.30;1.00;;;;;;5030050;28;20215;-74
2022/02/08 15:35:11;;;;;;;2.88;1.10;;;14.30;1.00;;;;;;5019050;28;20294;-87
2022/02/08 15:37:38;;;;;;;2.38;1.35;;;14.30;1.00;;;;;;5011176;28;20236;-74
2022/02/08 15:40:09;;;;;;;2.85;1.60;;;14.20;1.00;;;;;;5010619;28;20469;-86
2022/02/08 15:42:39;;;;;;;4.22;1.90;;;14.10;1.00;;;;;;5011211;28;20203;-74
2022/02/08 15:45:15;;;;;;;2.10;1.30;;;14.10;1.00;;;;;;5010953;28;20204;-74
2022/02/08 15:47:44;;;;;;;3.75;1.35;;;14.10;1.00;;;;;;5011301;28;20206;-74
2022/02/08 15:50:16;;;;;;;1.70;1.20;;;14.00;1.00;;;;;;5011599;28;20204;-77
2022/02/08 15:55:36;;;;;;;3.67;1.20;;;13.90;1.00;;;;;;5010671;28;20572;-74
2022/02/08 15:58:17;;;;;;;6.05;2.25;;;14.00;1.00;;;;;;5010647;28;20337;-74
2022/02/08 16:01:04;;;;;;;3.53;1.92;;;13.90;1.00;;;;;;5011032;28;20286;-75
2022/02/08 16:09:13;;;;;;;2.30;0.90;;;13.70;1.00;;;;;;4991235;28;20287;-74
2022/02/08 16:11:52;;;;;;;3.47;1.00;;;13.70;1.00;;;;;;5012713;28;20208;-82
2022/02/08 16:14:33;;;;;;;1.70;1.10;;;13.70;1.00;;;;;;5010632;28;20230;-74
2022/02/08 16:17:12;;;;;;;1.30;1.10;;;13.70;1.00;;;;;;5015077;28;20322;-75
2022/02/08 16:19:51;;;;;;;3.53;1.40;;;13.50;1.00;;;;;;5031116;28;20286;-82
2022/02/08 16:22:41;;;;;;;2.65;1.20;;;13.60;1.00;;;;;;5016884;28;20220;-75
2022/02/08 16:25:18;;;;;;;3.58;1.15;;;13.40;1.00;;;;;;5020982;28;20214;-75
2022/02/08 16:27:59;;;;;;;2.85;1.70;;;13.20;1.00;;;;;;5024030;28;20203;-81
2022/02/08 16:33:44;;;;;;;2.22;1.10;;;13.30;1.00;;;;;;5020956;28;20283;-84
2022/02/08 16:53:06;;;;;;;6.57;3.45;;;12.60;1.00;;;;;;5019332;28;20204;-77
2022/02/08 16:55:47;;;;;;;2.97;1.87;;;12.60;1.00;;;;;;5033677;28;20253;-73
2022/02/08 16:58:26;;;;;;;5.82;1.60;;;12.50;1.00;;;;;;5032371;28;20235;-78
2022/02/08 17:00:57;;;;;;;6.80;1.73;;;12.40;1.00;;;;;;5021439;28;20216;-80
2022/02/08 17:03:28;;;;;;;5.40;1.63;;;12.30;1.00;;;;;;5032715;28;20640;-88
2022/02/08 17:05:55;;;;;;;3.30;1.77;;;12.20;1.00;;;;;;5023366;28;20292;-73
2022/02/08 17:08:25;;;;;;;4.27;1.90;;;12.10;1.00;;;;;;5032501;28;20223;-73
2022/02/08 17:10:56;;;;;;;4.17;1.97;;;11.90;1.00;;;;;;5031818;28;20637;-72
2022/02/08 17:13:39;;;;;;;4.73;2.20;;;11.90;1.00;;;;;;5032727;28;20207;-73
2022/02/08 17:16:15;;;;;;;5.13;2.63;;;11.80;1.00;;;;;;5030920;28;20215;-84
2022/02/08 17:46:13;;;;;;;3.00;2.13;;;10.90;1.00;;;;;;4940540;28;20207;-88
2022/02/08 17:48:40;;;;;;;3.50;2.17;;;10.90;1.00;;;;;;5016680;28;20200;-89
2022/02/08 17:51:07;;;;;;;3.57;2.80;;;10.60;1.00;;;;;;5033906;28;20207;-75
2022/02/08 17:53:35;;;;;;;6.40;2.53;;;10.30;1.00;;;;;;5033271;28;20212;-87
2022/02/08 17:56:03;;;;;;;4.07;2.27;;;10.20;1.00;;;;;;5015369;28;20224;-73
2022/02/08 17:58:33;;;;;;;6.37;2.40;;;10.30;1.00;;;;;;5017695;28;20289;-81
2022/02/08 18:01:00;;;;;;;7.43;4.30;;;10.00;1.00;;;;;;5026320;28;20253;-80
2022/02/08 18:03:27;;;;;;;4.13;2.57;;;9.90;1.00;;;;;;5026670;28;20290;-82
2022/02/08 18:05:54;;;;;;;4.33;3.40;;;10.00;1.00;;;;;;5018683;28;20204;-73
2022/02/08 18:08:23;;;;;;;8.30;3.83;;;10.20;1.00;;;;;;5012804;28;20216;-79
2022/02/08 18:10:55;;;;;;;6.73;3.40;;;10.50;1.00;;;;;;5024603;28;20208;-87
2022/02/08 18:13:26;;;;;;;5.13;4.10;;;10.20;1.00;;;;;;5012483;28;20212;-77
2022/02/08 18:15:53;;;;;;;7.17;3.97;;;9.90;1.00;;;;;;5013013;28;20248;-85
2022/02/08 18:18:24;;;;;;;8.00;4.80;;;9.90;1.00;;;;;;5031379;28;20799;-86